sensor_id;sensor_type;location;lat;lon;timestamp;P1;P2;P0
46044;PMS7003;31781;54.094;13.428;2024-02-21T00:01:00;11.75;7.00;4.50
46044;PMS7003;31781;54.094;13.428;2024-02-21T00:07:01;11.75;8.75;7.75
46044;PMS7003;31781;54.094;13.428;2024-02-21T00:13:05;8.25;8.25;6.75
46044;PMS7003;31781;54.094;13.428;2024-02-21T00:19:07;14.25;13.75;10.25
46044;PMS7003;31781;54.094;13.428;2024-02-21T00:25:08;12.00;8.00;7.00
46044;PMS7003;31781;54.094;13.428;2024-02-21T00:31:12;18.50;14.00;9.00
46044;PMS7003;31781;54.094;13.428;2024-02-21T00:37:13;11.25;8.75;7.00
46044;PMS7003;31781;54.094;13.428;2024-02-21T00:43:15;15.00;13.25;9.00
46044;PMS7003;31781;54.094;13.428;2024-02-21T00:49:18;13.50;12.00;8.75
46044;PMS7003;31781;54.094;13.428;2024-02-21T00:55:20;16.00;16.00;12.00
46044;PMS7003;31781;54.094;13.428;2024-02-21T01:01:23;18.75;17.50;8.50
46044;PMS7003;31781;54.094;13.428;2024-02-21T01:07:26;16.75;13.75;11.75
46044;PMS7003;31781;54.094;13.428;2024-02-21T01:13:28;13.50;13.50;9.00
46044;PMS7003;31781;54.094;13.428;2024-02-21T01:19:30;18.75;14.75;10.00
46044;PMS7003;31781;54.094;13.428;2024-02-21T01:25:33;14.75;12.50;8.25
46044;PMS7003;31781;54.094;13.428;2024-02-21T01:31:35;21.50;16.75;12.25
46044;PMS7003;31781;54.094;13.428;2024-02-21T01:37:37;17.75;17.75;12.25
46044;PMS7003;31781;54.094;13.428;2024-02-21T01:43:44;15.75;13.00;11.00
46044;PMS7003;31781;54.094;13.428;2024-02-21T01:49:45;11.75;11.75;9.00
46044;PMS7003;31781;54.094;13.428;2024-02-21T01:55:47;16.75;13.75;9.25
46044;PMS7003;31781;54.094;13.428;2024-02-21T02:01:51;17.25;16.25;12.00
46044;PMS7003;31781;54.094;13.428;2024-02-21T02:07:53;17.75;16.50;11.75
46044;PMS7003;31781;54.094;13.428;2024-02-21T02:13:56;21.50;17.50;12.25
46044;PMS7003;31781;54.094;13.428;2024-02-21T02:20:02;19.25;19.25;14.25
46044;PMS7003;31781;54.094;13.428;2024-02-21T02:26:06;19.00;18.00;12.50
46044;PMS7003;31781;54.094;13.428;2024-02-21T02:32:08;17.75;16.50;13.00
46044;PMS7003;31781;54.094;13.428;2024-02-21T02:38:10;17.50;17.50;12.50
46044;PMS7003;31781;54.094;13.428;2024-02-21T02:44:13;22.50;18.25;12.00
46044;PMS7003;31781;54.094;13.428;2024-02-21T02:50:15;25.25;22.00;16.00
46044;PMS7003;31781;54.094;13.428;2024-02-21T02:56:21;18.50;16.75;12.75
46044;PMS7003;31781;54.094;13.428;2024-02-21T03:02:25;18.25;17.50;11.75
46044;PMS7003;31781;54.094;13.428;2024-02-21T03:08:27;21.25;20.00;14.00
46044;PMS7003;31781;54.094;13.428;2024-02-21T03:14:29;26.00;23.50;16.50
46044;PMS7003;31781;54.094;13.428;2024-02-21T03:20:33;23.75;18.50;13.00
46044;PMS7003;31781;54.094;13.428;2024-02-21T03:26:35;25.00;23.00;14.25
46044;PMS7003;31781;54.094;13.428;2024-02-21T03:32:36;21.75;15.00;8.75
46044;PMS7003;31781;54.094;13.428;2024-02-21T03:38:39;18.75;14.75;10.00
46044;PMS7003;31781;54.094;13.428;2024-02-21T03:44:41;23.25;20.50;15.25
46044;PMS7003;31781;54.094;13.428;2024-02-21T03:50:43;20.25;20.25;13.75
46044;PMS7003;31781;54.094;13.428;2024-02-21T03:56:46;14.75;14.75;12.00
46044;PMS7003;31781;54.094;13.428;2024-02-21T04:02:48;20.75;19.50;14.00
46044;PMS7003;31781;54.094;13.428;2024-02-21T04:08:50;23.25;20.25;14.00
46044;PMS7003;31781;54.094;13.428;2024-02-21T04:14:53;21.00;20.25;13.75
46044;PMS7003;31781;54.094;13.428;2024-02-21T04:20:55;24.00;22.75;14.00
46044;PMS7003;31781;54.094;13.428;2024-02-21T04:26:56;25.50;24.25;15.25
46044;PMS7003;31781;54.094;13.428;2024-02-21T04:33:00;18.00;17.00;12.00
46044;PMS7003;31781;54.094;13.428;2024-02-21T04:39:02;18.00;17.25;11.75
46044;PMS7003;31781;54.094;13.428;2024-02-21T04:45:04;17.75;17.75;14.00
46044;PMS7003;31781;54.094;13.428;2024-02-21T04:51:08;20.00;20.00;13.25
46044;PMS7003;31781;54.094;13.428;2024-02-21T04:57:10;17.25;17.25;13.00
46044;PMS7003;31781;54.094;13.428;2024-02-21T05:03:12;15.25;13.25;10.50
46044;PMS7003;31781;54.094;13.428;2024-02-21T05:09:15;11.75;9.00;8.75
46044;PMS7003;31781;54.094;13.428;2024-02-21T05:15:17;18.50;18.50;13.00
46044;PMS7003;31781;54.094;13.428;2024-02-21T05:21:18;13.50;13.25;8.00
46044;PMS7003;31781;54.094;13.428;2024-02-21T05:27:21;17.00;14.75;9.75
46044;PMS7003;31781;54.094;13.428;2024-02-21T05:33:23;16.75;16.75;9.75
46044;PMS7003;31781;54.094;13.428;2024-02-21T05:39:26;14.50;14.50;9.50
46044;PMS7003;31781;54.094;13.428;2024-02-21T05:45:29;9.50;8.50;6.25
46044;PMS7003;31781;54.094;13.428;2024-02-21T05:51:32;16.75;15.25;9.75
46044;PMS7003;31781;54.094;13.428;2024-02-21T05:57:35;19.75;16.50;12.00
46044;PMS7003;31781;54.094;13.428;2024-02-21T06:03:38;9.00;8.75;2.25
46044;PMS7003;31781;54.094;13.428;2024-02-21T06:09:40;14.50;14.50;11.50
46044;PMS7003;31781;54.094;13.428;2024-02-21T06:15:42;12.25;12.25;8.25
46044;PMS7003;31781;54.094;13.428;2024-02-21T06:21:45;21.25;17.75;12.75
46044;PMS7003;31781;54.094;13.428;2024-02-21T06:27:47;14.50;14.00;10.75
46044;PMS7003;31781;54.094;13.428;2024-02-21T06:33:49;15.50;13.25;10.00
46044;PMS7003;31781;54.094;13.428;2024-02-21T06:39:52;16.75;15.50;9.75
46044;PMS7003;31781;54.094;13.428;2024-02-21T06:45:54;12.00;7.00;3.00
46044;PMS7003;31781;54.094;13.428;2024-02-21T06:51:55;13.50;13.50;9.25
46044;PMS7003;31781;54.094;13.428;2024-02-21T06:57:58;13.00;12.00;9.00
46044;PMS7003;31781;54.094;13.428;2024-02-21T07:04:00;14.25;11.75;9.00
46044;PMS7003;31781;54.094;13.428;2024-02-21T07:10:02;15.75;14.00;9.25
46044;PMS7003;31781;54.094;13.428;2024-02-21T07:16:06;12.50;9.50;6.75
46044;PMS7003;31781;54.094;13.428;2024-02-21T07:22:08;7.50;7.00;4.00
46044;PMS7003;31781;54.094;13.428;2024-02-21T07:28:10;3.25;3.25;3.25
46044;PMS7003;31781;54.094;13.428;2024-02-21T07:34:13;6.50;4.00;3.00
46044;PMS7003;31781;54.094;13.428;2024-02-21T07:40:15;8.50;7.00;6.00
46044;PMS7003;31781;54.094;13.428;2024-02-21T07:46:18;6.75;4.00;3.25
46044;PMS7003;31781;54.094;13.428;2024-02-21T07:52:21;8.00;8.00;7.00
46044;PMS7003;31781;54.094;13.428;2024-02-21T07:58:23;9.50;8.00;7.00
46044;PMS7003;31781;54.094;13.428;2024-02-21T08:04:25;5.25;4.00;3.00
46044;PMS7003;31781;54.094;13.428;2024-02-21T08:10:28;1.00;1.00;0.50
46044;PMS7003;31781;54.094;13.428;2024-02-21T08:16:30;0.00;0.00;0.00
46044;PMS7003;31781;54.094;13.428;2024-02-21T08:22:31;3.50;3.50;3.00
46044;PMS7003;31781;54.094;13.428;2024-02-21T08:28:35;2.25;2.25;2.00
46044;PMS7003;31781;54.094;13.428;2024-02-21T08:34:37;3.00;3.00;3.00
46044;PMS7003;31781;54.094;13.428;2024-02-21T08:40:38;2.00;2.00;1.50
46044;PMS7003;31781;54.094;13.428;2024-02-21T08:46:41;1.75;1.00;1.00
46044;PMS7003;31781;54.094;13.428;2024-02-21T08:52:43;2.00;1.75;1.00
46044;PMS7003;31781;54.094;13.428;2024-02-21T08:58:45;0.50;0.50;0.50
46044;PMS7003;31781;54.094;13.428;2024-02-21T09:04:49;1.00;1.00;1.00
46044;PMS7003;31781;54.094;13.428;2024-02-21T09:10:51;0.25;0.00;0.00
46044;PMS7003;31781;54.094;13.428;2024-02-21T09:16:53;0.00;0.00;0.00
46044;PMS7003;31781;54.094;13.428;2024-02-21T09:22:56;1.00;1.00;1.00
46044;PMS7003;31781;54.094;13.428;2024-02-21T09:28:58;1.25;1.25;1.00
46044;PMS7003;31781;54.094;13.428;2024-02-21T09:35:00;4.00;1.50;1.00
46044;PMS7003;31781;54.094;13.428;2024-02-21T09:41:08;1.00;1.00;1.00
46044;PMS7003;31781;54.094;13.428;2024-02-21T09:47:22;0.00;0.00;0.00
46044;PMS7003;31781;54.094;13.428;2024-02-21T09:53:32;2.00;2.00;1.50
46044;PMS7003;31781;54.094;13.428;2024-02-21T09:59:40;0.00;0.00;0.00
46044;PMS7003;31781;54.094;13.428;2024-02-21T10:05:46;0.50;0.50;0.50
46044;PMS7003;31781;54.094;13.428;2024-02-21T10:11:49;1.00;1.00;1.00
46044;PMS7003;31781;54.094;13.428;2024-02-21T10:17:59;1.75;1.75;1.00
46044;PMS7003;31781;54.094;13.428;2024-02-21T10:24:02;1.00;1.00;1.00
46044;PMS7003;31781;54.094;13.428;2024-02-21T10:30:05;1.00;1.00;1.00
46044;PMS7003;31781;54.094;13.428;2024-02-21T10:36:14;1.00;1.00;1.00
46044;PMS7003;31781;54.094;13.428;2024-02-21T10:42:16;0.00;0.00;0.00
46044;PMS7003;31781;54.094;13.428;2024-02-21T10:48:24;0.00;0.00;0.00
46044;PMS7003;31781;54.094;13.428;2024-02-21T10:54:38;1.00;0.00;0.00
46044;PMS7003;31781;54.094;13.428;2024-02-21T11:00:45;0.00;0.00;0.00
46044;PMS7003;31781;54.094;13.428;2024-02-21T11:06:47;0.00;0.00;0.00
46044;PMS7003;31781;54.094;13.428;2024-02-21T11:12:53;0.00;0.00;0.00
46044;PMS7003;31781;54.094;13.428;2024-02-21T11:19:03;0.00;0.00;0.00
46044;PMS7003;31781;54.094;13.428;2024-02-21T11:25:06;3.00;3.00;3.00
46044;PMS7003;31781;54.094;13.428;2024-02-21T11:31:11;3.00;1.50;1.00
46044;PMS7003;31781;54.094;13.428;2024-02-21T11:37:14;0.00;0.00;0.00
46044;PMS7003;31781;54.094;13.428;2024-02-21T11:43:16;0.00;0.00;0.00
46044;PMS7003;31781;54.094;13.428;2024-02-21T11:49:19;0.00;0.00;0.00
46044;PMS7003;31781;54.094;13.428;2024-02-21T11:55:21;0.00;0.00;0.00
46044;PMS7003;31781;54.094;13.428;2024-02-21T12:01:23;0.00;0.00;0.00
46044;PMS7003;31781;54.094;13.428;2024-02-21T12:07:27;0.00;0.00;0.00
46044;PMS7003;31781;54.094;13.428;2024-02-21T12:13:30;0.00;0.00;0.00
46044;PMS7003;31781;54.094;13.428;2024-02-21T12:19:32;0.00;0.00;0.00
46044;PMS7003;31781;54.094;13.428;2024-02-21T12:25:36;0.00;0.00;0.00
46044;PMS7003;31781;54.094;13.428;2024-02-21T12:31:40;1.00;0.00;0.00
46044;PMS7003;31781;54.094;13.428;2024-02-21T12:37:43;0.00;0.00;0.00
46044;PMS7003;31781;54.094;13.428;2024-02-21T12:43:46;0.00;0.00;0.00
46044;PMS7003;31781;54.094;13.428;2024-02-21T12:49:48;0.00;0.00;0.00
46044;PMS7003;31781;54.094;13.428;2024-02-21T12:55:50;0.00;0.00;0.00
46044;PMS7003;31781;54.094;13.428;2024-02-21T13:01:53;0.25;0.25;0.00
46044;PMS7003;31781;54.094;13.428;2024-02-21T13:07:55;0.00;0.00;0.00
46044;PMS7003;31781;54.094;13.428;2024-02-21T13:13:57;0.00;0.00;0.00
46044;PMS7003;31781;54.094;13.428;2024-02-21T13:20:00;2.00;0.00;0.00
46044;PMS7003;31781;54.094;13.428;2024-02-21T13:26:02;2.50;2.50;2.50
46044;PMS7003;31781;54.094;13.428;2024-02-21T13:32:04;3.75;3.75;3.75
46044;PMS7003;31781;54.094;13.428;2024-02-21T13:38:07;1.50;0.25;0.25
46044;PMS7003;31781;54.094;13.428;2024-02-21T13:44:09;1.25;0.75;0.75
46044;PMS7003;31781;54.094;13.428;2024-02-21T13:50:11;0.00;0.00;0.00
46044;PMS7003;31781;54.094;13.428;2024-02-21T13:56:14;0.50;0.00;0.00
46044;PMS7003;31781;54.094;13.428;2024-02-21T14:02:16;0.00;0.00;0.00
46044;PMS7003;31781;54.094;13.428;2024-02-21T14:08:18;0.00;0.00;0.00
46044;PMS7003;31781;54.094;13.428;2024-02-21T14:14:21;0.00;0.00;0.00
46044;PMS7003;31781;54.094;13.428;2024-02-21T14:20:23;1.00;0.00;0.00
46044;PMS7003;31781;54.094;13.428;2024-02-21T14:26:26;0.00;0.00;0.00
46044;PMS7003;31781;54.094;13.428;2024-02-21T14:32:29;0.00;0.00;0.00
46044;PMS7003;31781;54.094;13.428;2024-02-21T14:38:31;0.00;0.00;0.00
46044;PMS7003;31781;54.094;13.428;2024-02-21T14:44:32;0.00;0.00;0.00
46044;PMS7003;31781;54.094;13.428;2024-02-21T14:50:35;0.00;0.00;0.00
46044;PMS7003;31781;54.094;13.428;2024-02-21T14:56:37;0.00;0.00;0.00
46044;PMS7003;31781;54.094;13.428;2024-02-21T15:02:39;0.00;0.00;0.00
46044;PMS7003;31781;54.094;13.428;2024-02-21T15:08:42;0.00;0.00;0.00
46044;PMS7003;31781;54.094;13.428;2024-02-21T15:14:44;0.75;0.75;0.75
46044;PMS7003;31781;54.094;13.428;2024-02-21T15:20:46;1.00;1.00;0.50
46044;PMS7003;31781;54.094;13.428;2024-02-21T15:26:49;1.00;1.00;0.00
46044;PMS7003;31781;54.094;13.428;2024-02-21T15:32:51;0.00;0.00;0.00
46044;PMS7003;31781;54.094;13.428;2024-02-21T15:38:52;0.00;0.00;0.00
46044;PMS7003;31781;54.094;13.428;2024-02-21T15:44:56;2.75;1.00;1.00
46044;PMS7003;31781;54.094;13.428;2024-02-21T15:50:57;0.00;0.00;0.00
46044;PMS7003;31781;54.094;13.428;2024-02-21T15:56:59;1.00;1.00;1.00
46044;PMS7003;31781;54.094;13.428;2024-02-21T16:03:02;0.00;0.00;0.00
46044;PMS7003;31781;54.094;13.428;2024-02-21T16:09:04;1.75;1.75;1.25
46044;PMS7003;31781;54.094;13.428;2024-02-21T16:15:07;1.00;1.00;1.00
46044;PMS7003;31781;54.094;13.428;2024-02-21T16:21:10;2.00;2.00;1.75
46044;PMS7003;31781;54.094;13.428;2024-02-21T16:27:12;2.00;2.00;1.75
46044;PMS7003;31781;54.094;13.428;2024-02-21T16:33:14;3.75;3.75;3.00
46044;PMS7003;31781;54.094;13.428;2024-02-21T16:39:17;5.25;5.00;3.00
46044;PMS7003;31781;54.094;13.428;2024-02-21T16:45:19;6.00;6.00;4.50
46044;PMS7003;31781;54.094;13.428;2024-02-21T16:51:21;4.75;4.75;3.50
46044;PMS7003;31781;54.094;13.428;2024-02-21T16:57:25;0.75;0.75;0.00
46044;PMS7003;31781;54.094;13.428;2024-02-21T17:03:27;4.50;4.50;3.75
46044;PMS7003;31781;54.094;13.428;2024-02-21T17:09:29;8.00;6.50;5.00
46044;PMS7003;31781;54.094;13.428;2024-02-21T17:15:32;4.25;4.25;3.00
46044;PMS7003;31781;54.094;13.428;2024-02-21T17:21:36;6.75;6.75;4.00
46044;PMS7003;31781;54.094;13.428;2024-02-21T17:27:38;7.00;4.25;3.50
46044;PMS7003;31781;54.094;13.428;2024-02-21T17:33:41;5.50;5.50;4.00
46044;PMS7003;31781;54.094;13.428;2024-02-21T17:39:43;5.50;5.50;4.50
46044;PMS7003;31781;54.094;13.428;2024-02-21T17:45:45;3.00;3.00;1.50
46044;PMS7003;31781;54.094;13.428;2024-02-21T17:51:48;7.00;4.75;4.00
46044;PMS7003;31781;54.094;13.428;2024-02-21T17:57:50;7.00;7.00;5.25
46044;PMS7003;31781;54.094;13.428;2024-02-21T18:03:52;8.50;8.00;6.25
46044;PMS7003;31781;54.094;13.428;2024-02-21T18:09:55;7.00;7.00;4.25
46044;PMS7003;31781;54.094;13.428;2024-02-21T18:15:58;5.25;5.25;4.00
46044;PMS7003;31781;54.094;13.428;2024-02-21T18:22:00;8.00;8.00;4.50
46044;PMS7003;31781;54.094;13.428;2024-02-21T18:28:03;8.00;5.50;4.00
46044;PMS7003;31781;54.094;13.428;2024-02-21T18:34:05;7.75;7.75;4.50
46044;PMS7003;31781;54.094;13.428;2024-02-21T18:40:07;10.50;10.50;8.00
46044;PMS7003;31781;54.094;13.428;2024-02-21T18:46:11;7.25;7.25;5.25
46044;PMS7003;31781;54.094;13.428;2024-02-21T18:52:13;7.00;7.00;5.25
46044;PMS7003;31781;54.094;13.428;2024-02-21T18:58:21;9.00;8.25;7.00
46044;PMS7003;31781;54.094;13.428;2024-02-21T19:04:24;7.25;6.75;4.75
46044;PMS7003;31781;54.094;13.428;2024-02-21T19:10:26;5.25;5.25;4.00
46044;PMS7003;31781;54.094;13.428;2024-02-21T19:16:28;7.75;7.75;3.00
46044;PMS7003;31781;54.094;13.428;2024-02-21T19:22:32;7.25;5.75;4.50
46044;PMS7003;31781;54.094;13.428;2024-02-21T19:28:36;5.50;5.50;4.00
46044;PMS7003;31781;54.094;13.428;2024-02-21T19:34:38;7.00;6.00;4.00
46044;PMS7003;31781;54.094;13.428;2024-02-21T19:40:44;7.50;7.50;6.00
46044;PMS7003;31781;54.094;13.428;2024-02-21T19:46:48;7.25;7.25;6.00
46044;PMS7003;31781;54.094;13.428;2024-02-21T19:52:50;9.50;9.50;6.00
46044;PMS7003;31781;54.094;13.428;2024-02-21T19:58:53;8.75;8.75;7.00
46044;PMS7003;31781;54.094;13.428;2024-02-21T20:04:55;8.25;7.75;4.25
46044;PMS7003;31781;54.094;13.428;2024-02-21T20:10:57;10.25;8.75;7.00
46044;PMS7003;31781;54.094;13.428;2024-02-21T20:17:00;13.50;12.75;9.75
46044;PMS7003;31781;54.094;13.428;2024-02-21T20:23:02;10.50;10.50;7.00
46044;PMS7003;31781;54.094;13.428;2024-02-21T20:29:04;8.25;8.25;7.00
46044;PMS7003;31781;54.094;13.428;2024-02-21T20:35:08;9.50;9.50;7.00
46044;PMS7003;31781;54.094;13.428;2024-02-21T20:41:16;12.50;12.50;7.75
46044;PMS7003;31781;54.094;13.428;2024-02-21T20:47:19;11.50;11.25;7.50
46044;PMS7003;31781;54.094;13.428;2024-02-21T20:53:22;8.75;8.75;6.00
46044;PMS7003;31781;54.094;13.428;2024-02-21T20:59:23;6.00;6.00;6.00
46044;PMS7003;31781;54.094;13.428;2024-02-21T21:05:25;8.25;8.25;6.25
46044;PMS7003;31781;54.094;13.428;2024-02-21T21:11:28;9.00;7.25;5.50
46044;PMS7003;31781;54.094;13.428;2024-02-21T21:17:46;5.25;5.25;4.25
46044;PMS7003;31781;54.094;13.428;2024-02-21T21:23:47;4.50;4.00;2.75
46044;PMS7003;31781;54.094;13.428;2024-02-21T21:29:51;7.75;7.75;6.00
46044;PMS7003;31781;54.094;13.428;2024-02-21T21:35:52;4.00;4.00;4.00
46044;PMS7003;31781;54.094;13.428;2024-02-21T21:41:54;7.75;7.50;6.00
46044;PMS7003;31781;54.094;13.428;2024-02-21T21:47:58;5.50;5.50;3.75
46044;PMS7003;31781;54.094;13.428;2024-02-21T21:53:59;10.25;8.00;6.50
46044;PMS7003;31781;54.094;13.428;2024-02-21T22:00:01;6.50;6.50;5.00
46044;PMS7003;31781;54.094;13.428;2024-02-21T22:06:05;8.00;7.75;4.00
46044;PMS7003;31781;54.094;13.428;2024-02-21T22:12:07;8.00;7.25;6.00
46044;PMS7003;31781;54.094;13.428;2024-02-21T22:18:09;7.00;7.00;6.00
46044;PMS7003;31781;54.094;13.428;2024-02-21T22:24:12;5.50;4.00;3.00
46044;PMS7003;31781;54.094;13.428;2024-02-21T22:30:14;6.25;6.25;6.00
46044;PMS7003;31781;54.094;13.428;2024-02-21T22:36:16;9.00;7.50;6.25
46044;PMS7003;31781;54.094;13.428;2024-02-21T22:42:24;6.25;5.50;3.25
46044;PMS7003;31781;54.094;13.428;2024-02-21T22:48:26;8.50;5.50;4.00
46044;PMS7003;31781;54.094;13.428;2024-02-21T22:54:28;8.00;7.50;4.25
46044;PMS7003;31781;54.094;13.428;2024-02-21T23:00:31;4.75;4.75;3.00
46044;PMS7003;31781;54.094;13.428;2024-02-21T23:06:33;7.50;7.50;6.00
46044;PMS7003;31781;54.094;13.428;2024-02-21T23:12:35;6.00;6.00;5.00
46044;PMS7003;31781;54.094;13.428;2024-02-21T23:18:38;7.00;7.00;5.25
46044;PMS7003;31781;54.094;13.428;2024-02-21T23:24:40;6.25;4.25;4.25
46044;PMS7003;31781;54.094;13.428;2024-02-21T23:30:41;7.00;7.00;4.25
46044;PMS7003;31781;54.094;13.428;2024-02-21T23:36:44;7.00;6.00;4.25
46044;PMS7003;31781;54.094;13.428;2024-02-21T23:42:46;6.75;4.25;4.00
46044;PMS7003;31781;54.094;13.428;2024-02-21T23:48:48;6.00;4.00;3.50
46044;PMS7003;31781;54.094;13.428;2024-02-21T23:54:51;7.25;6.75;3.75
